sensor_id;sensor_type;location;lat;lon;timestamp;P1;durP1;ratioP1;P2;durP2;ratioP2
22113;SDS011;11223;49.968;9.062;2022-11-15T00:00:18;4.77;;;3.73;;
22113;SDS011;11223;49.968;9.062;2022-11-15T00:02:44;5.20;;;4.70;;
22113;SDS011;11223;49.968;9.062;2022-11-15T00:05:10;4.27;;;3.90;;
22113;SDS011;11223;49.968;9.062;2022-11-15T00:07:35;5.30;;;4.20;;
22113;SDS011;11223;49.968;9.062;2022-11-15T00:10:01;4.40;;;3.73;;
22113;SDS011;11223;49.968;9.062;2022-11-15T00:12:27;5.43;;;4.40;;
22113;SDS011;11223;49.968;9.062;2022-11-15T00:14:53;5.43;;;4.93;;
22113;SDS011;11223;49.968;9.062;2022-11-15T00:17:19;4.50;;;4.10;;
22113;SDS011;11223;49.968;9.062;2022-11-15T00:19:44;5.43;;;4.60;;
22113;SDS011;11223;49.968;9.062;2022-11-15T00:22:10;5.67;;;3.90;;
22113;SDS011;11223;49.968;9.062;2022-11-15T00:24:36;4.57;;;3.90;;
22113;SDS011;11223;49.968;9.062;2022-11-15T00:27:01;4.63;;;4.23;;
22113;SDS011;11223;49.968;9.062;2022-11-15T00:29:27;4.43;;;3.90;;
22113;SDS011;11223;49.968;9.062;2022-11-15T00:31:52;5.13;;;4.63;;
22113;SDS011;11223;49.968;9.062;2022-11-15T00:34:18;4.30;;;4.00;;
22113;SDS011;11223;49.968;9.062;2022-11-15T00:36:44;5.07;;;4.43;;
22113;SDS011;11223;49.968;9.062;2022-11-15T00:39:09;5.07;;;4.63;;
22113;SDS011;11223;49.968;9.062;2022-11-15T00:41:35;3.50;;;3.07;;
22113;SDS011;11223;49.968;9.062;2022-11-15T00:44:00;4.90;;;4.50;;
22113;SDS011;11223;49.968;9.062;2022-11-15T00:46:26;4.33;;;3.83;;
22113;SDS011;11223;49.968;9.062;2022-11-15T00:48:52;5.40;;;4.60;;
22113;SDS011;11223;49.968;9.062;2022-11-15T00:51:17;4.00;;;3.70;;
22113;SDS011;11223;49.968;9.062;2022-11-15T00:53:43;5.53;;;4.30;;
22113;SDS011;11223;49.968;9.062;2022-11-15T00:56:08;4.90;;;3.93;;
22113;SDS011;11223;49.968;9.062;2022-11-15T00:58:34;4.70;;;4.20;;
22113;SDS011;11223;49.968;9.062;2022-11-15T01:01:10;4.20;;;3.70;;
22113;SDS011;11223;49.968;9.062;2022-11-15T01:03:38;4.45;;;4.05;;
22113;SDS011;11223;49.968;9.062;2022-11-15T01:06:05;4.10;;;3.60;;
22113;SDS011;11223;49.968;9.062;2022-11-15T01:08:31;4.65;;;4.07;;
22113;SDS011;11223;49.968;9.062;2022-11-15T01:11:01;4.85;;;3.95;;
22113;SDS011;11223;49.968;9.062;2022-11-15T01:13:31;4.43;;;4.03;;
22113;SDS011;11223;49.968;9.062;2022-11-15T01:15:58;5.30;;;4.15;;
22113;SDS011;11223;49.968;9.062;2022-11-15T01:18:30;4.75;;;4.35;;
22113;SDS011;11223;49.968;9.062;2022-11-15T01:20:55;5.20;;;4.20;;
22113;SDS011;11223;49.968;9.062;2022-11-15T01:23:21;4.37;;;3.97;;
22113;SDS011;11223;49.968;9.062;2022-11-15T01:25:46;4.70;;;4.30;;
22113;SDS011;11223;49.968;9.062;2022-11-15T01:28:12;5.00;;;4.20;;
22113;SDS011;11223;49.968;9.062;2022-11-15T01:30:37;6.87;;;4.70;;
22113;SDS011;11223;49.968;9.062;2022-11-15T01:33:03;4.90;;;4.50;;
22113;SDS011;11223;49.968;9.062;2022-11-15T01:35:29;4.27;;;3.87;;
22113;SDS011;11223;49.968;9.062;2022-11-15T01:37:54;3.80;;;3.40;;
22113;SDS011;11223;49.968;9.062;2022-11-15T01:40:20;4.80;;;4.30;;
22113;SDS011;11223;49.968;9.062;2022-11-15T01:42:45;4.23;;;3.83;;
22113;SDS011;11223;49.968;9.062;2022-11-15T01:45:14;4.97;;;4.50;;
22113;SDS011;11223;49.968;9.062;2022-11-15T01:47:42;4.88;;;4.47;;
22113;SDS011;11223;49.968;9.062;2022-11-15T01:50:20;4.43;;;4.05;;
22113;SDS011;11223;49.968;9.062;2022-11-15T01:52:48;5.57;;;5.10;;
22113;SDS011;11223;49.968;9.062;2022-11-15T01:55:16;4.40;;;4.10;;
22113;SDS011;11223;49.968;9.062;2022-11-15T01:57:43;5.70;;;5.20;;
22113;SDS011;11223;49.968;9.062;2022-11-15T02:00:12;5.03;;;4.50;;
22113;SDS011;11223;49.968;9.062;2022-11-15T02:02:38;5.57;;;4.50;;
22113;SDS011;11223;49.968;9.062;2022-11-15T02:05:04;7.65;;;4.80;;
22113;SDS011;11223;49.968;9.062;2022-11-15T02:07:31;5.80;;;5.10;;
22113;SDS011;11223;49.968;9.062;2022-11-15T02:09:59;4.18;;;3.78;;
22113;SDS011;11223;49.968;9.062;2022-11-15T02:12:38;4.50;;;4.20;;
22113;SDS011;11223;49.968;9.062;2022-11-15T02:15:04;3.90;;;3.60;;
22113;SDS011;11223;49.968;9.062;2022-11-15T02:17:39;4.70;;;4.30;;
22113;SDS011;11223;49.968;9.062;2022-11-15T02:23:14;5.05;;;3.55;;
22113;SDS011;11223;49.968;9.062;2022-11-15T02:31:41;4.20;;;3.80;;
22113;SDS011;11223;49.968;9.062;2022-11-15T02:34:18;4.55;;;3.75;;
22113;SDS011;11223;49.968;9.062;2022-11-15T02:39:52;4.65;;;4.25;;
22113;SDS011;11223;49.968;9.062;2022-11-15T02:42:31;6.68;;;4.97;;
22113;SDS011;11223;49.968;9.062;2022-11-15T02:45:21;4.70;;;4.20;;
22113;SDS011;11223;49.968;9.062;2022-11-15T02:48:02;4.25;;;3.95;;
22113;SDS011;11223;49.968;9.062;2022-11-15T02:50:29;5.25;;;4.22;;
22113;SDS011;11223;49.968;9.062;2022-11-15T02:52:57;5.20;;;4.70;;
22113;SDS011;11223;49.968;9.062;2022-11-15T02:57:52;4.20;;;3.80;;
22113;SDS011;11223;49.968;9.062;2022-11-15T03:00:51;4.65;;;4.20;;
22113;SDS011;11223;49.968;9.062;2022-11-15T03:08:55;5.15;;;4.63;;
22113;SDS011;11223;49.968;9.062;2022-11-15T03:11:41;4.50;;;4.10;;
22113;SDS011;11223;49.968;9.062;2022-11-15T03:19:34;4.32;;;3.92;;
22113;SDS011;11223;49.968;9.062;2022-11-15T03:22:13;4.55;;;4.15;;
22113;SDS011;11223;49.968;9.062;2022-11-15T03:24:43;4.50;;;4.07;;
22113;SDS011;11223;49.968;9.062;2022-11-15T03:27:12;4.75;;;4.35;;
22113;SDS011;11223;49.968;9.062;2022-11-15T03:29:50;4.93;;;4.40;;
22113;SDS011;11223;49.968;9.062;2022-11-15T03:32:20;4.63;;;4.22;;
22113;SDS011;11223;49.968;9.062;2022-11-15T03:34:56;6.13;;;3.95;;
22113;SDS011;11223;49.968;9.062;2022-11-15T03:37:37;4.40;;;4.00;;
22113;SDS011;11223;49.968;9.062;2022-11-15T03:40:25;7.00;;;4.38;;
22113;SDS011;11223;49.968;9.062;2022-11-15T03:46:11;4.22;;;3.85;;
22113;SDS011;11223;49.968;9.062;2022-11-15T03:48:41;4.20;;;3.80;;
22113;SDS011;11223;49.968;9.062;2022-11-15T03:51:11;4.50;;;3.95;;
22113;SDS011;11223;49.968;9.062;2022-11-15T03:53:37;4.10;;;3.72;;
22113;SDS011;11223;49.968;9.062;2022-11-15T03:56:03;4.57;;;4.10;;
22113;SDS011;11223;49.968;9.062;2022-11-15T03:58:29;5.10;;;4.60;;
22113;SDS011;11223;49.968;9.062;2022-11-15T04:00:54;6.60;;;5.07;;
22113;SDS011;11223;49.968;9.062;2022-11-15T04:03:20;4.90;;;4.40;;
22113;SDS011;11223;49.968;9.062;2022-11-15T04:05:45;5.97;;;4.27;;
22113;SDS011;11223;49.968;9.062;2022-11-15T04:08:11;4.20;;;3.90;;
22113;SDS011;11223;49.968;9.062;2022-11-15T04:10:36;5.50;;;3.67;;
22113;SDS011;11223;49.968;9.062;2022-11-15T04:13:02;6.43;;;4.93;;
22113;SDS011;11223;49.968;9.062;2022-11-15T04:15:28;5.00;;;4.60;;
22113;SDS011;11223;49.968;9.062;2022-11-15T04:17:56;4.68;;;4.28;;
22113;SDS011;11223;49.968;9.062;2022-11-15T04:20:23;5.00;;;4.50;;
22113;SDS011;11223;49.968;9.062;2022-11-15T04:23:13;4.88;;;4.28;;
22113;SDS011;11223;49.968;9.062;2022-11-15T04:26:02;4.63;;;4.13;;
22113;SDS011;11223;49.968;9.062;2022-11-15T04:28:35;4.18;;;3.50;;
22113;SDS011;11223;49.968;9.062;2022-11-15T04:31:21;4.68;;;2.97;;
22113;SDS011;11223;49.968;9.062;2022-11-15T04:33:47;5.27;;;4.77;;
22113;SDS011;11223;49.968;9.062;2022-11-15T04:36:13;4.23;;;3.83;;
22113;SDS011;11223;49.968;9.062;2022-11-15T04:38:57;4.70;;;3.47;;
22113;SDS011;11223;49.968;9.062;2022-11-15T04:41:22;5.03;;;4.53;;
22113;SDS011;11223;49.968;9.062;2022-11-15T04:43:48;4.33;;;3.93;;
22113;SDS011;11223;49.968;9.062;2022-11-15T04:46:13;4.57;;;4.17;;
22113;SDS011;11223;49.968;9.062;2022-11-15T04:48:39;5.10;;;3.70;;
22113;SDS011;11223;49.968;9.062;2022-11-15T04:51:05;5.13;;;4.63;;
22113;SDS011;11223;49.968;9.062;2022-11-15T04:53:30;4.00;;;3.70;;
22113;SDS011;11223;49.968;9.062;2022-11-15T04:55:56;4.70;;;4.30;;
22113;SDS011;11223;49.968;9.062;2022-11-15T04:58:21;5.30;;;3.70;;
22113;SDS011;11223;49.968;9.062;2022-11-15T05:00:47;4.33;;;3.40;;
22113;SDS011;11223;49.968;9.062;2022-11-15T05:03:12;4.40;;;4.00;;
22113;SDS011;11223;49.968;9.062;2022-11-15T05:05:57;4.10;;;3.80;;
22113;SDS011;11223;49.968;9.062;2022-11-15T05:08:23;4.93;;;4.43;;
22113;SDS011;11223;49.968;9.062;2022-11-15T05:10:49;5.60;;;3.63;;
22113;SDS011;11223;49.968;9.062;2022-11-15T05:13:14;4.13;;;3.73;;
22113;SDS011;11223;49.968;9.062;2022-11-15T05:15:40;5.20;;;4.23;;
22113;SDS011;11223;49.968;9.062;2022-11-15T05:18:05;3.40;;;3.10;;
22113;SDS011;11223;49.968;9.062;2022-11-15T05:20:31;4.40;;;4.00;;
22113;SDS011;11223;49.968;9.062;2022-11-15T05:22:57;5.00;;;3.23;;
22113;SDS011;11223;49.968;9.062;2022-11-15T05:25:22;3.70;;;3.40;;
22113;SDS011;11223;49.968;9.062;2022-11-15T05:27:48;4.00;;;3.60;;
22113;SDS011;11223;49.968;9.062;2022-11-15T05:30:14;5.27;;;4.77;;
22113;SDS011;11223;49.968;9.062;2022-11-15T05:32:40;5.68;;;3.90;;
22113;SDS011;11223;49.968;9.062;2022-11-15T05:35:06;4.13;;;3.83;;
22113;SDS011;11223;49.968;9.062;2022-11-15T05:37:36;4.68;;;4.25;;
22113;SDS011;11223;49.968;9.062;2022-11-15T05:40:02;5.43;;;4.93;;
22113;SDS011;11223;49.968;9.062;2022-11-15T05:42:27;5.87;;;5.37;;
22113;SDS011;11223;49.968;9.062;2022-11-15T05:44:55;4.53;;;4.10;;
22113;SDS011;11223;49.968;9.062;2022-11-15T05:47:23;5.15;;;4.65;;
22113;SDS011;11223;49.968;9.062;2022-11-15T05:49:52;6.90;;;5.78;;
22113;SDS011;11223;49.968;9.062;2022-11-15T05:52:20;5.97;;;5.57;;
22113;SDS011;11223;49.968;9.062;2022-11-15T05:54:49;5.50;;;4.95;;
22113;SDS011;11223;49.968;9.062;2022-11-15T05:57:15;5.60;;;5.10;;
22113;SDS011;11223;49.968;9.062;2022-11-15T05:59:41;5.43;;;4.87;;
22113;SDS011;11223;49.968;9.062;2022-11-15T06:02:08;5.68;;;5.18;;
22113;SDS011;11223;49.968;9.062;2022-11-15T06:04:35;6.00;;;5.43;;
22113;SDS011;11223;49.968;9.062;2022-11-15T06:07:00;4.90;;;4.50;;
22113;SDS011;11223;49.968;9.062;2022-11-15T06:09:26;5.47;;;4.37;;
22113;SDS011;11223;49.968;9.062;2022-11-15T06:11:52;5.70;;;4.70;;
22113;SDS011;11223;49.968;9.062;2022-11-15T06:14:17;5.70;;;5.10;;
22113;SDS011;11223;49.968;9.062;2022-11-15T06:16:43;5.57;;;5.17;;
22113;SDS011;11223;49.968;9.062;2022-11-15T06:19:08;6.10;;;5.50;;
22113;SDS011;11223;49.968;9.062;2022-11-15T06:21:34;5.57;;;5.07;;
22113;SDS011;11223;49.968;9.062;2022-11-15T06:24:00;5.33;;;4.47;;
22113;SDS011;11223;49.968;9.062;2022-11-15T06:26:26;6.00;;;4.77;;
22113;SDS011;11223;49.968;9.062;2022-11-15T06:28:52;6.20;;;5.20;;
22113;SDS011;11223;49.968;9.062;2022-11-15T06:31:17;6.20;;;5.70;;
22113;SDS011;11223;49.968;9.062;2022-11-15T06:33:43;4.97;;;4.40;;
22113;SDS011;11223;49.968;9.062;2022-11-15T06:36:09;4.83;;;4.43;;
22113;SDS011;11223;49.968;9.062;2022-11-15T06:38:41;4.28;;;3.92;;
22113;SDS011;11223;49.968;9.062;2022-11-15T06:41:08;5.17;;;4.77;;
22113;SDS011;11223;49.968;9.062;2022-11-15T06:43:35;4.85;;;4.00;;
22113;SDS011;11223;49.968;9.062;2022-11-15T06:46:01;4.28;;;3.88;;
22113;SDS011;11223;49.968;9.062;2022-11-15T06:48:28;5.32;;;4.82;;
22113;SDS011;11223;49.968;9.062;2022-11-15T06:50:56;7.50;;;4.65;;
22113;SDS011;11223;49.968;9.062;2022-11-15T06:53:23;6.60;;;5.35;;
22113;SDS011;11223;49.968;9.062;2022-11-15T06:55:49;4.80;;;3.75;;
22113;SDS011;11223;49.968;9.062;2022-11-15T06:58:15;5.28;;;4.75;;
22113;SDS011;11223;49.968;9.062;2022-11-15T07:00:41;4.70;;;4.30;;
22113;SDS011;11223;49.968;9.062;2022-11-15T07:03:06;5.47;;;5.07;;
22113;SDS011;11223;49.968;9.062;2022-11-15T07:05:32;4.53;;;4.13;;
22113;SDS011;11223;49.968;9.062;2022-11-15T07:07:58;5.07;;;4.60;;
22113;SDS011;11223;49.968;9.062;2022-11-15T07:10:25;5.35;;;4.85;;
22113;SDS011;11223;49.968;9.062;2022-11-15T07:12:51;5.90;;;4.50;;
22113;SDS011;11223;49.968;9.062;2022-11-15T07:15:18;6.53;;;5.63;;
22113;SDS011;11223;49.968;9.062;2022-11-15T07:17:45;5.63;;;4.78;;
22113;SDS011;11223;49.968;9.062;2022-11-15T07:20:11;6.67;;;5.07;;
22113;SDS011;11223;49.968;9.062;2022-11-15T07:22:38;7.45;;;6.57;;
22113;SDS011;11223;49.968;9.062;2022-11-15T07:25:07;5.35;;;4.85;;
22113;SDS011;11223;49.968;9.062;2022-11-15T07:27:33;6.57;;;5.32;;
22113;SDS011;11223;49.968;9.062;2022-11-15T07:29:59;6.10;;;5.50;;
22113;SDS011;11223;49.968;9.062;2022-11-15T07:32:25;5.88;;;5.35;;
22113;SDS011;11223;49.968;9.062;2022-11-15T07:34:51;5.53;;;5.00;;
22113;SDS011;11223;49.968;9.062;2022-11-15T07:37:16;5.20;;;4.80;;
22113;SDS011;11223;49.968;9.062;2022-11-15T07:39:42;7.57;;;6.03;;
22113;SDS011;11223;49.968;9.062;2022-11-15T07:42:09;11.82;;;6.70;;
22113;SDS011;11223;49.968;9.062;2022-11-15T07:44:53;6.50;;;5.90;;
22113;SDS011;11223;49.968;9.062;2022-11-15T07:47:19;4.90;;;4.47;;
22113;SDS011;11223;49.968;9.062;2022-11-15T07:49:45;5.25;;;4.70;;
22113;SDS011;11223;49.968;9.062;2022-11-15T07:52:11;7.07;;;6.47;;
22113;SDS011;11223;49.968;9.062;2022-11-15T07:54:37;4.95;;;4.55;;
22113;SDS011;11223;49.968;9.062;2022-11-15T07:57:03;6.00;;;5.43;;
22113;SDS011;11223;49.968;9.062;2022-11-15T07:59:29;5.33;;;4.90;;
22113;SDS011;11223;49.968;9.062;2022-11-15T08:01:55;6.33;;;5.37;;
22113;SDS011;11223;49.968;9.062;2022-11-15T08:04:21;6.83;;;6.00;;
22113;SDS011;11223;49.968;9.062;2022-11-15T08:06:46;6.60;;;6.03;;
22113;SDS011;11223;49.968;9.062;2022-11-15T08:09:12;6.60;;;6.00;;
22113;SDS011;11223;49.968;9.062;2022-11-15T08:11:38;5.47;;;4.97;;
22113;SDS011;11223;49.968;9.062;2022-11-15T08:14:03;6.20;;;5.70;;
22113;SDS011;11223;49.968;9.062;2022-11-15T08:16:29;7.07;;;6.20;;
22113;SDS011;11223;49.968;9.062;2022-11-15T08:18:54;5.43;;;4.90;;
22113;SDS011;11223;49.968;9.062;2022-11-15T08:21:20;6.20;;;5.60;;
22113;SDS011;11223;49.968;9.062;2022-11-15T08:23:46;6.32;;;5.30;;
22113;SDS011;11223;49.968;9.062;2022-11-15T08:26:12;6.30;;;5.28;;
22113;SDS011;11223;49.968;9.062;2022-11-15T08:28:38;5.70;;;5.20;;
22113;SDS011;11223;49.968;9.062;2022-11-15T08:31:04;6.23;;;5.03;;
22113;SDS011;11223;49.968;9.062;2022-11-15T08:33:30;5.70;;;5.20;;
22113;SDS011;11223;49.968;9.062;2022-11-15T08:35:57;5.72;;;5.22;;
22113;SDS011;11223;49.968;9.062;2022-11-15T08:38:23;5.13;;;4.63;;
22113;SDS011;11223;49.968;9.062;2022-11-15T08:40:52;4.50;;;4.10;;
22113;SDS011;11223;49.968;9.062;2022-11-15T08:43:24;4.82;;;4.32;;
22113;SDS011;11223;49.968;9.062;2022-11-15T08:45:50;5.97;;;5.47;;
22113;SDS011;11223;49.968;9.062;2022-11-15T08:48:16;4.33;;;3.70;;
22113;SDS011;11223;49.968;9.062;2022-11-15T08:50:41;6.50;;;4.80;;
22113;SDS011;11223;49.968;9.062;2022-11-15T08:53:08;4.13;;;3.78;;
22113;SDS011;11223;49.968;9.062;2022-11-15T08:55:38;4.45;;;4.05;;
22113;SDS011;11223;49.968;9.062;2022-11-15T08:58:05;5.00;;;4.38;;
22113;SDS011;11223;49.968;9.062;2022-11-15T09:00:30;6.53;;;5.20;;
22113;SDS011;11223;49.968;9.062;2022-11-15T09:02:56;4.67;;;4.17;;
22113;SDS011;11223;49.968;9.062;2022-11-15T09:05:22;5.97;;;3.90;;
22113;SDS011;11223;49.968;9.062;2022-11-15T09:07:52;3.70;;;3.40;;
22113;SDS011;11223;49.968;9.062;2022-11-15T09:10:18;4.55;;;4.15;;
22113;SDS011;11223;49.968;9.062;2022-11-15T09:12:44;4.00;;;3.60;;
22113;SDS011;11223;49.968;9.062;2022-11-15T09:15:13;3.17;;;2.90;;
22113;SDS011;11223;49.968;9.062;2022-11-15T09:17:41;4.80;;;4.25;;
22113;SDS011;11223;49.968;9.062;2022-11-15T09:20:07;3.78;;;3.25;;
22113;SDS011;11223;49.968;9.062;2022-11-15T09:22:33;3.90;;;3.40;;
22113;SDS011;11223;49.968;9.062;2022-11-15T09:24:59;5.00;;;3.87;;
22113;SDS011;11223;49.968;9.062;2022-11-15T09:27:28;4.20;;;3.80;;
22113;SDS011;11223;49.968;9.062;2022-11-15T09:29:55;4.05;;;3.75;;
22113;SDS011;11223;49.968;9.062;2022-11-15T09:32:21;2.90;;;2.67;;
22113;SDS011;11223;49.968;9.062;2022-11-15T09:34:48;3.97;;;2.80;;
22113;SDS011;11223;49.968;9.062;2022-11-15T09:37:14;3.90;;;3.55;;
22113;SDS011;11223;49.968;9.062;2022-11-15T09:39:39;4.93;;;2.87;;
22113;SDS011;11223;49.968;9.062;2022-11-15T09:55:40;3.72;;;2.45;;
22113;SDS011;11223;49.968;9.062;2022-11-15T10:00:55;3.58;;;3.15;;
22113;SDS011;11223;49.968;9.062;2022-11-15T10:03:34;3.28;;;2.95;;
22113;SDS011;11223;49.968;9.062;2022-11-15T10:06:03;6.40;;;2.90;;
22113;SDS011;11223;49.968;9.062;2022-11-15T10:08:47;5.28;;;2.88;;
22113;SDS011;11223;49.968;9.062;2022-11-15T10:11:24;2.95;;;2.65;;
22113;SDS011;11223;49.968;9.062;2022-11-15T10:13:53;3.60;;;2.90;;
22113;SDS011;11223;49.968;9.062;2022-11-15T10:24:42;2.45;;;2.25;;
22113;SDS011;11223;49.968;9.062;2022-11-15T10:27:16;3.33;;;2.50;;
22113;SDS011;11223;49.968;9.062;2022-11-15T10:29:48;4.45;;;3.83;;
22113;SDS011;11223;49.968;9.062;2022-11-15T10:32:15;3.58;;;2.75;;
22113;SDS011;11223;49.968;9.062;2022-11-15T10:34:44;4.70;;;3.13;;
22113;SDS011;11223;49.968;9.062;2022-11-15T10:37:10;2.80;;;2.57;;
22113;SDS011;11223;49.968;9.062;2022-11-15T10:39:35;3.17;;;2.87;;
22113;SDS011;11223;49.968;9.062;2022-11-15T10:42:17;2.43;;;2.23;;
22113;SDS011;11223;49.968;9.062;2022-11-15T10:44:50;3.00;;;2.35;;
22113;SDS011;11223;49.968;9.062;2022-11-15T10:49:59;3.47;;;3.10;;
22113;SDS011;11223;49.968;9.062;2022-11-15T10:52:27;4.25;;;3.15;;
22113;SDS011;11223;49.968;9.062;2022-11-15T10:54:56;3.17;;;2.88;;
22113;SDS011;11223;49.968;9.062;2022-11-15T10:57:36;2.80;;;2.60;;
22113;SDS011;11223;49.968;9.062;2022-11-15T11:00:26;3.17;;;2.88;;
22113;SDS011;11223;49.968;9.062;2022-11-15T11:03:04;3.35;;;3.05;;
22113;SDS011;11223;49.968;9.062;2022-11-15T11:05:45;3.10;;;2.55;;
22113;SDS011;11223;49.968;9.062;2022-11-15T11:10:36;5.80;;;3.10;;
22113;SDS011;11223;49.968;9.062;2022-11-15T11:13:20;2.50;;;2.30;;
22113;SDS011;11223;49.968;9.062;2022-11-15T11:15:50;3.63;;;2.75;;
22113;SDS011;11223;49.968;9.062;2022-11-15T11:18:27;3.60;;;3.30;;
22113;SDS011;11223;49.968;9.062;2022-11-15T11:21:01;3.47;;;3.15;;
22113;SDS011;11223;49.968;9.062;2022-11-15T11:26:15;3.63;;;3.33;;
22113;SDS011;11223;49.968;9.062;2022-11-15T11:28:54;4.30;;;3.50;;
22113;SDS011;11223;49.968;9.062;2022-11-15T11:40:35;3.25;;;2.95;;
22113;SDS011;11223;49.968;9.062;2022-11-15T11:48:12;2.85;;;2.50;;
22113;SDS011;11223;49.968;9.062;2022-11-15T11:50:40;2.95;;;2.35;;
22113;SDS011;11223;49.968;9.062;2022-11-15T11:53:25;4.00;;;2.40;;
22113;SDS011;11223;49.968;9.062;2022-11-15T11:55:57;3.42;;;2.67;;
22113;SDS011;11223;49.968;9.062;2022-11-15T11:58:43;3.00;;;2.80;;
22113;SDS011;11223;49.968;9.062;2022-11-15T12:03:47;3.22;;;2.63;;
22113;SDS011;11223;49.968;9.062;2022-11-15T12:09:11;2.78;;;2.58;;
22113;SDS011;11223;49.968;9.062;2022-11-15T12:17:11;3.78;;;3.05;;
22113;SDS011;11223;49.968;9.062;2022-11-15T12:19:37;7.72;;;3.10;;
22113;SDS011;11223;49.968;9.062;2022-11-15T12:24:38;2.80;;;2.60;;
22113;SDS011;11223;49.968;9.062;2022-11-15T12:27:24;3.20;;;2.90;;
22113;SDS011;11223;49.968;9.062;2022-11-15T12:30:03;3.30;;;2.65;;
22113;SDS011;11223;49.968;9.062;2022-11-15T12:32:35;3.10;;;2.83;;
22113;SDS011;11223;49.968;9.062;2022-11-15T12:35:03;2.85;;;1.90;;
22113;SDS011;11223;49.968;9.062;2022-11-15T12:37:47;2.60;;;2.30;;
22113;SDS011;11223;49.968;9.062;2022-11-15T12:40:18;4.60;;;2.45;;
22113;SDS011;11223;49.968;9.062;2022-11-15T12:43:00;2.25;;;2.05;;
22113;SDS011;11223;49.968;9.062;2022-11-15T12:45:38;2.95;;;2.65;;
22113;SDS011;11223;49.968;9.062;2022-11-15T12:50:53;3.20;;;2.40;;
22113;SDS011;11223;49.968;9.062;2022-11-15T12:58:46;3.47;;;1.90;;
22113;SDS011;11223;49.968;9.062;2022-11-15T13:14:53;2.40;;;2.00;;
22113;SDS011;11223;49.968;9.062;2022-11-15T13:17:33;2.42;;;2.22;;
22113;SDS011;11223;49.968;9.062;2022-11-15T13:22:27;2.30;;;2.07;;
22113;SDS011;11223;49.968;9.062;2022-11-15T13:25:19;3.85;;;1.90;;
22113;SDS011;11223;49.968;9.062;2022-11-15T13:30:41;2.40;;;2.20;;
22113;SDS011;11223;49.968;9.062;2022-11-15T13:33:19;1.90;;;1.80;;
22113;SDS011;11223;49.968;9.062;2022-11-15T13:35:54;2.28;;;2.00;;
22113;SDS011;11223;49.968;9.062;2022-11-15T13:38:32;2.88;;;1.60;;
22113;SDS011;11223;49.968;9.062;2022-11-15T13:41:10;2.63;;;2.25;;
22113;SDS011;11223;49.968;9.062;2022-11-15T13:43:45;1.75;;;1.65;;
22113;SDS011;11223;49.968;9.062;2022-11-15T13:46:12;3.35;;;2.67;;
22113;SDS011;11223;49.968;9.062;2022-11-15T13:48:41;5.38;;;2.63;;
22113;SDS011;11223;49.968;9.062;2022-11-15T13:51:20;2.90;;;2.33;;
22113;SDS011;11223;49.968;9.062;2022-11-15T13:53:56;2.60;;;2.40;;
22113;SDS011;11223;49.968;9.062;2022-11-15T13:56:48;3.00;;;2.70;;
22113;SDS011;11223;49.968;9.062;2022-11-15T13:59:24;3.83;;;3.05;;
22113;SDS011;11223;49.968;9.062;2022-11-15T14:01:52;3.50;;;3.20;;
22113;SDS011;11223;49.968;9.062;2022-11-15T14:04:21;3.50;;;2.47;;
22113;SDS011;11223;49.968;9.062;2022-11-15T14:06:52;4.05;;;2.97;;
22113;SDS011;11223;49.968;9.062;2022-11-15T14:09:31;3.50;;;3.20;;
22113;SDS011;11223;49.968;9.062;2022-11-15T14:11:59;3.30;;;2.75;;
22113;SDS011;11223;49.968;9.062;2022-11-15T14:14:28;2.70;;;2.50;;
22113;SDS011;11223;49.968;9.062;2022-11-15T14:16:55;4.00;;;2.40;;
22113;SDS011;11223;49.968;9.062;2022-11-15T14:22:07;3.07;;;2.00;;
22113;SDS011;11223;49.968;9.062;2022-11-15T14:24:41;2.70;;;2.50;;
22113;SDS011;11223;49.968;9.062;2022-11-15T14:27:27;2.78;;;2.17;;
22113;SDS011;11223;49.968;9.062;2022-11-15T14:29:54;2.55;;;2.35;;
22113;SDS011;11223;49.968;9.062;2022-11-15T14:34:48;2.58;;;2.15;;
22113;SDS011;11223;49.968;9.062;2022-11-15T14:37:21;2.40;;;2.20;;
22113;SDS011;11223;49.968;9.062;2022-11-15T14:39:48;2.50;;;2.30;;
22113;SDS011;11223;49.968;9.062;2022-11-15T14:42:14;2.95;;;2.75;;
22113;SDS011;11223;49.968;9.062;2022-11-15T14:44:40;2.70;;;2.50;;
22113;SDS011;11223;49.968;9.062;2022-11-15T14:47:06;3.30;;;2.80;;
22113;SDS011;11223;49.968;9.062;2022-11-15T14:49:31;2.93;;;2.63;;
22113;SDS011;11223;49.968;9.062;2022-11-15T14:51:57;3.57;;;2.17;;
22113;SDS011;11223;49.968;9.062;2022-11-15T14:54:23;3.80;;;2.37;;
22113;SDS011;11223;49.968;9.062;2022-11-15T14:56:48;3.20;;;3.00;;
22113;SDS011;11223;49.968;9.062;2022-11-15T14:59:14;3.03;;;2.83;;
22113;SDS011;11223;49.968;9.062;2022-11-15T15:01:39;2.90;;;2.40;;
22113;SDS011;11223;49.968;9.062;2022-11-15T15:04:05;2.23;;;2.00;;
22113;SDS011;11223;49.968;9.062;2022-11-15T15:06:30;3.60;;;2.77;;
22113;SDS011;11223;49.968;9.062;2022-11-15T15:08:56;2.40;;;2.20;;
22113;SDS011;11223;49.968;9.062;2022-11-15T15:13:48;4.75;;;3.65;;
22113;SDS011;11223;49.968;9.062;2022-11-15T15:16:14;4.53;;;4.10;;
22113;SDS011;11223;49.968;9.062;2022-11-15T15:18:40;8.10;;;6.40;;
22113;SDS011;11223;49.968;9.062;2022-11-15T15:21:12;4.03;;;3.60;;
22113;SDS011;11223;49.968;9.062;2022-11-15T15:23:44;5.78;;;4.40;;
22113;SDS011;11223;49.968;9.062;2022-11-15T15:26:10;4.07;;;2.73;;
22113;SDS011;11223;49.968;9.062;2022-11-15T15:28:35;3.33;;;2.50;;
22113;SDS011;11223;49.968;9.062;2022-11-15T15:31:03;3.35;;;2.67;;
22113;SDS011;11223;49.968;9.062;2022-11-15T15:33:29;3.37;;;2.13;;
22113;SDS011;11223;49.968;9.062;2022-11-15T15:35:54;8.17;;;2.70;;
22113;SDS011;11223;49.968;9.062;2022-11-15T15:38:20;2.83;;;2.57;;
22113;SDS011;11223;49.968;9.062;2022-11-15T15:40:46;4.00;;;2.90;;
22113;SDS011;11223;49.968;9.062;2022-11-15T15:43:12;3.53;;;2.47;;
22113;SDS011;11223;49.968;9.062;2022-11-15T15:45:38;2.73;;;2.50;;
22113;SDS011;11223;49.968;9.062;2022-11-15T15:48:05;2.88;;;2.58;;
22113;SDS011;11223;49.968;9.062;2022-11-15T15:50:33;3.13;;;2.70;;
22113;SDS011;11223;49.968;9.062;2022-11-15T15:53:00;2.70;;;2.50;;
22113;SDS011;11223;49.968;9.062;2022-11-15T15:55:27;2.90;;;2.70;;
22113;SDS011;11223;49.968;9.062;2022-11-15T15:57:53;3.10;;;2.60;;
22113;SDS011;11223;49.968;9.062;2022-11-15T16:00:19;2.78;;;2.58;;
22113;SDS011;11223;49.968;9.062;2022-11-15T16:02:47;2.42;;;2.20;;
22113;SDS011;11223;49.968;9.062;2022-11-15T16:05:13;4.83;;;3.60;;
22113;SDS011;11223;49.968;9.062;2022-11-15T16:07:39;3.17;;;2.87;;
22113;SDS011;11223;49.968;9.062;2022-11-15T16:10:18;5.20;;;4.22;;
22113;SDS011;11223;49.968;9.062;2022-11-15T16:12:53;3.50;;;3.30;;
22113;SDS011;11223;49.968;9.062;2022-11-15T16:15:21;3.15;;;2.88;;
22113;SDS011;11223;49.968;9.062;2022-11-15T16:17:51;3.20;;;2.90;;
22113;SDS011;11223;49.968;9.062;2022-11-15T16:20:32;4.65;;;4.25;;
22113;SDS011;11223;49.968;9.062;2022-11-15T16:23:00;3.95;;;3.55;;
22113;SDS011;11223;49.968;9.062;2022-11-15T16:25:28;4.30;;;3.90;;
22113;SDS011;11223;49.968;9.062;2022-11-15T16:27:53;12.53;;;11.07;;
22113;SDS011;11223;49.968;9.062;2022-11-15T16:30:20;12.23;;;10.80;;
22113;SDS011;11223;49.968;9.062;2022-11-15T16:32:47;11.95;;;10.77;;
22113;SDS011;11223;49.968;9.062;2022-11-15T16:35:13;11.50;;;10.20;;
22113;SDS011;11223;49.968;9.062;2022-11-15T16:37:40;12.70;;;10.35;;
22113;SDS011;11223;49.968;9.062;2022-11-15T16:42:52;6.20;;;4.50;;
22113;SDS011;11223;49.968;9.062;2022-11-15T16:45:18;4.77;;;4.30;;
22113;SDS011;11223;49.968;9.062;2022-11-15T16:47:43;4.10;;;3.70;;
22113;SDS011;11223;49.968;9.062;2022-11-15T16:50:17;4.73;;;3.90;;
22113;SDS011;11223;49.968;9.062;2022-11-15T16:52:57;10.07;;;9.07;;
22113;SDS011;11223;49.968;9.062;2022-11-15T16:55:27;10.77;;;9.68;;
22113;SDS011;11223;49.968;9.062;2022-11-15T16:57:54;9.30;;;8.20;;
22113;SDS011;11223;49.968;9.062;2022-11-15T17:00:22;7.35;;;6.70;;
22113;SDS011;11223;49.968;9.062;2022-11-15T17:02:49;8.30;;;7.50;;
22113;SDS011;11223;49.968;9.062;2022-11-15T17:05:16;9.38;;;8.48;;